Cape May Point, NJ (08212)

1:20 PM EDT on September 03, 2015 (GMT -0400)
NOS_PORTS | | Change Station
CLOSE
Current Station
Personal Weather Station
Location: Cape May Point, NJ
Elevation: 0 ft
Nearby Weather Stations

Elev 0 ft 38.99 °N, 75.11 °W | Updated 38 minutes ago

Clear
Clear
0.0 °F
Feels Like -12 °F
N
6.0
Wind Variable Wind from NW
Gusts 8.0 mph

Today
High -- | Low -- °F
--% Chance of Precip.
Yesterday
High -- | Low -- °F
Precip. -- in
6:30 AM 7:27 PM
Waning Gibbous, 68% visible
Pressure 29.88 in
Visibility 9.0 miles
Clouds Clear
Windchill -12 °F
Dew Point Not available.
Humidity Not available.
Rainfall in
Snow Depth Not available.
UV 9 out of 12
Pollen 9.80 out of 12
Air Quality Not available.
Flu Activity Not available.
METAR KWWD 031715Z AUTO 27008KT 9SM CLR 30/20 A2988 RMK AO1
Pressure 29.88 in
Visibility 9.0 miles
Clouds Clear
Windchill -12 °F
Dew Point Not available.
Humidity Not available.
Rainfall in
Snow Depth Not available.
UV 9 out of 12
Pollen 9.80 out of 12
Air Quality Not available.
Flu Activity Not available.
METAR KWWD 031715Z AUTO 27008KT 9SM CLR 30/20 A2988 RMK AO1

10-Day Weather Forecast

×

Almanac

Astronomy

Sep. 03, 2015 Rise Set
Actual Time
Civil Twilight
Nautical Twilight
Astronomical Twilight
Moon
Length of Visible Light
Length of Day
Tomorrow will be .
, % of the Moon is Illuminated

Today's Extremes

State Highs State Lows

Community

WunderPhotos

Upload Photos

1,851,990 photos uploaded!

WunderBlogs® & News

Nearby

Air Quality

  Air Quality AQ Index Pollutant
Not available.

Snow Depth

Station Depth Elevation

Earthquake Activity

City Distance Mag. Time & Date
Minimum magnitude displayed is 2.5.

Coastal Water Temperatures

Place Temperature

Stations

Nearby Weather Stations

Station Location Temp. Windchill Dew Point Humidity Wind Precip. Elev Updated Type